createdAt,value
2023-05-19T00:00:35.712Z,517.7
2023-05-19T00:01:37.819Z,518.1
2023-05-19T00:02:40.583Z,518.2
2023-05-19T00:03:42.648Z,518
2023-05-19T00:04:44.485Z,518.3
2023-05-19T00:05:46.725Z,518.4
2023-05-19T00:06:48.431Z,518.5
2023-05-19T00:07:50.293Z,518.6
2023-05-19T00:08:52.145Z,518.9
2023-05-19T00:09:53.975Z,518.8
2023-05-19T00:10:55.772Z,518.6
2023-05-19T00:11:57.427Z,518.7
2023-05-19T00:12:59.238Z,518.4
2023-05-19T00:14:01.087Z,519.2
2023-05-19T00:15:03.140Z,519
2023-05-19T00:16:08.211Z,519.4
2023-05-19T00:17:10.113Z,519.2
2023-05-19T00:18:12.202Z,519.5
2023-05-19T00:19:14.435Z,519.6
2023-05-19T00:20:16.385Z,519.5
2023-05-19T00:21:18.230Z,519.7
2023-05-19T00:22:20.081Z,519.6
2023-05-19T00:23:21.903Z,519.9
2023-05-19T00:24:23.790Z,519.9
2023-05-19T00:25:25.728Z,520.1
2023-05-19T00:26:27.699Z,520.1
2023-05-19T00:27:29.538Z,520.1
2023-05-19T00:28:31.200Z,519.7
2023-05-19T00:29:33.031Z,519.5
2023-05-19T00:30:35.191Z,519.6
2023-05-19T00:31:37.248Z,519.3
2023-05-19T00:32:39.443Z,519.1
2023-05-19T00:33:41.471Z,519.2
2023-05-19T00:34:43.433Z,519.7
2023-05-19T00:35:45.170Z,519.6
2023-05-19T00:36:47.093Z,519.4
2023-05-19T00:37:48.966Z,519.4
2023-05-19T00:38:50.923Z,519.8
2023-05-19T00:39:52.833Z,519.6
2023-05-19T00:40:54.926Z,519.6
2023-05-19T00:41:56.578Z,520.3
2023-05-19T00:42:58.391Z,520.6
2023-05-19T00:44:00.380Z,520.7
2023-05-19T00:45:02.203Z,521.1
2023-05-19T00:46:04.064Z,520.3
2023-05-19T00:47:06.363Z,520.6
2023-05-19T00:48:11.619Z,520.5
2023-05-19T00:49:13.408Z,520.5
2023-05-19T00:50:15.236Z,520.3
2023-05-19T00:51:17.557Z,520.6
2023-05-19T00:52:19.372Z,520.4
2023-05-19T00:53:21.221Z,520.1
2023-05-19T00:54:23.052Z,520.3
2023-05-19T00:55:24.824Z,520.4
2023-05-19T00:56:26.767Z,520.6
2023-05-19T00:57:28.615Z,520.5
2023-05-19T00:58:30.807Z,520.5
2023-05-19T00:59:32.722Z,520.3
2023-05-19T01:00:35.737Z,520.5
2023-05-19T01:01:38.191Z,521.2
2023-05-19T01:02:40.469Z,521
2023-05-19T01:03:43.129Z,520.8
2023-05-19T01:04:45.239Z,521
2023-05-19T01:05:47.117Z,521
2023-05-19T01:06:49.051Z,520.9
2023-05-19T01:07:50.901Z,520.9
2023-05-19T01:08:52.761Z,520.4
2023-05-19T01:09:54.601Z,520.3
2023-05-19T01:10:56.470Z,520.2
2023-05-19T01:11:58.310Z,520.5
2023-05-19T01:13:00.047Z,520.5
2023-05-19T01:14:02.094Z,520.3
2023-05-19T01:15:03.946Z,520.2
2023-05-19T01:16:05.813Z,520.2
2023-05-19T01:17:07.682Z,519.9
2023-05-19T01:18:09.733Z,519.7
2023-05-19T01:19:11.998Z,520.2
2023-05-19T01:20:13.826Z,520.3
2023-05-19T01:21:15.694Z,519.8
2023-05-19T01:22:17.610Z,519.8
2023-05-19T01:23:19.474Z,519.8
2023-05-19T01:24:21.322Z,520
2023-05-19T01:25:23.216Z,520
2023-05-19T01:26:24.960Z,520.1
2023-05-19T01:27:26.847Z,519.9
2023-05-19T01:28:28.698Z,520.1
2023-05-19T01:29:30.872Z,520.4
2023-05-19T01:30:33.726Z,520.4
2023-05-19T01:31:35.802Z,520.6
2023-05-19T01:32:38.008Z,520.8
2023-05-19T01:33:39.913Z,520.7
2023-05-19T01:34:41.869Z,520.5
2023-05-19T01:35:43.824Z,520
2023-05-19T01:36:45.701Z,520.4
2023-05-19T01:37:47.523Z,520.1
2023-05-19T01:38:49.373Z,519.6
2023-05-19T01:39:51.215Z,519.3
2023-05-19T01:40:53.055Z,519.7
2023-05-19T01:41:54.950Z,519.9
2023-05-19T01:42:58.414Z,519.9
2023-05-19T01:44:00.267Z,520
2023-05-19T01:45:02.009Z,520.4
2023-05-19T01:46:04.100Z,520.2
2023-05-19T01:47:06.041Z,520.4
2023-05-19T01:48:11.904Z,520.3
2023-05-19T01:49:13.717Z,520.2
2023-05-19T01:50:15.557Z,520.6
2023-05-19T01:51:17.389Z,520.4
2023-05-19T01:52:19.387Z,520.2
2023-05-19T01:53:21.241Z,520
2023-05-19T01:54:23.078Z,520
2023-05-19T01:55:24.912Z,520
2023-05-19T01:56:26.766Z,520
2023-05-19T01:57:28.611Z,520.1
2023-05-19T01:58:30.481Z,520
2023-05-19T01:59:32.307Z,520.2
2023-05-19T02:00:35.320Z,520
2023-05-19T02:01:37.380Z,520.1
2023-05-19T02:02:39.421Z,519.8
2023-05-19T02:03:41.454Z,519.8
2023-05-19T02:04:43.644Z,519.4
2023-05-19T02:05:45.551Z,519.2
2023-05-19T02:06:47.517Z,519.3
2023-05-19T02:07:49.496Z,519.3
2023-05-19T02:08:51.427Z,519.8
2023-05-19T02:09:53.384Z,519.6
2023-05-19T02:10:55.232Z,519.3
2023-05-19T02:11:57.079Z,519.5
2023-05-19T02:12:59.224Z,519.3
2023-05-19T02:14:01.294Z,519.4
2023-05-19T02:15:03.061Z,519.3
2023-05-19T02:16:05.155Z,519
2023-05-19T02:17:07.033Z,519.4
2023-05-19T02:18:08.792Z,519.6
2023-05-19T02:19:10.796Z,519.5
2023-05-19T02:20:12.997Z,519.4
2023-05-19T02:21:14.749Z,519.6
2023-05-19T02:22:16.532Z,519.5
2023-05-19T02:23:18.372Z,519.6
2023-05-19T02:24:20.287Z,519.7
2023-05-19T02:25:22.037Z,519.6
2023-05-19T02:26:23.991Z,519.3
2023-05-19T02:27:26.063Z,519.3
2023-05-19T02:28:27.906Z,519.1
2023-05-19T02:29:29.855Z,519.1
2023-05-19T02:30:33.110Z,519
2023-05-19T02:31:35.311Z,519.2
2023-05-19T02:32:37.757Z,519.1
2023-05-19T02:33:39.716Z,519.2
2023-05-19T02:34:41.563Z,519.2
2023-05-19T02:35:43.511Z,519.4
2023-05-19T02:36:45.385Z,519.1
2023-05-19T02:37:47.410Z,519.8
2023-05-19T02:38:49.366Z,519.1
2023-05-19T02:39:51.209Z,519.2
2023-05-19T02:40:53.061Z,518.9
2023-05-19T02:41:54.812Z,519
2023-05-19T02:42:56.570Z,518.9
2023-05-19T02:43:58.423Z,519
2023-05-19T02:45:02.926Z,518.8
2023-05-19T02:46:05.061Z,518.9
2023-05-19T02:47:06.951Z,518.9
2023-05-19T02:48:08.929Z,519
2023-05-19T02:49:10.835Z,518.6
2023-05-19T02:50:12.699Z,518.6
2023-05-19T02:51:14.533Z,518.6
2023-05-19T02:52:16.413Z,518.6
2023-05-19T02:53:18.238Z,518.7
2023-05-19T02:54:20.017Z,518.9
2023-05-19T02:55:21.843Z,519.1
2023-05-19T02:56:23.789Z,519
2023-05-19T02:57:25.633Z,519.1
2023-05-19T02:58:27.391Z,518.8
2023-05-19T02:59:29.230Z,518.8
2023-05-19T03:00:32.107Z,518.7
2023-05-19T03:01:34.280Z,518.6
2023-05-19T03:02:36.567Z,518.7
2023-05-19T03:03:39.043Z,518.5
2023-05-19T03:04:40.949Z,518.4
2023-05-19T03:05:42.901Z,518.4
2023-05-19T03:06:44.724Z,518
2023-05-19T03:07:46.594Z,517.9
2023-05-19T03:08:48.448Z,517.7
2023-05-19T03:09:50.318Z,517.6
2023-05-19T03:10:52.048Z,517.4
2023-05-19T03:11:53.899Z,517.3
2023-05-19T03:12:55.634Z,517.4
2023-05-19T03:13:57.497Z,517.3
2023-05-19T03:14:59.336Z,517.2
2023-05-19T03:16:01.303Z,517.3
2023-05-19T03:17:03.159Z,517.5
2023-05-19T03:18:05.024Z,517.6
2023-05-19T03:19:07.203Z,517.5
2023-05-19T03:20:09.204Z,517.4
2023-05-19T03:21:11.060Z,517.3
2023-05-19T03:22:12.899Z,517.2
2023-05-19T03:23:14.770Z,517.3
2023-05-19T03:24:16.634Z,517.2
2023-05-19T03:25:18.417Z,517.5
2023-05-19T03:26:20.226Z,517.7
2023-05-19T03:27:22.090Z,517.8
2023-05-19T03:28:24.112Z,517.8
2023-05-19T03:29:25.853Z,517.8
2023-05-19T03:30:27.715Z,517.7
2023-05-19T03:31:29.539Z,517.9
2023-05-19T03:32:31.790Z,518
2023-05-19T03:33:34.012Z,517.9
2023-05-19T03:34:35.820Z,517.5
2023-05-19T03:35:37.758Z,517.7
2023-05-19T03:36:39.523Z,517.5
2023-05-19T03:37:41.482Z,517.8
2023-05-19T03:38:43.535Z,517.3
2023-05-19T03:39:45.492Z,517.7
2023-05-19T03:40:47.363Z,517.4
2023-05-19T03:41:49.387Z,517
2023-05-19T03:42:51.238Z,517.5
2023-05-19T03:43:52.986Z,517.8
2023-05-19T03:44:54.833Z,517.8
2023-05-19T03:45:56.906Z,518.1
2023-05-19T03:46:58.668Z,517.8
2023-05-19T03:48:00.722Z,517.8
2023-05-19T03:49:02.623Z,517.6
2023-05-19T03:50:04.302Z,517.5
2023-05-19T03:51:06.257Z,517.6
2023-05-19T03:52:08.199Z,517.3
2023-05-19T03:53:10.062Z,517.3
2023-05-19T03:54:11.902Z,517
2023-05-19T03:55:13.848Z,517.1
2023-05-19T03:56:15.726Z,516.7
2023-05-19T03:57:17.545Z,516.5
2023-05-19T03:58:19.405Z,516.7
2023-05-19T03:59:21.269Z,516.7
2023-05-19T04:00:23.097Z,516.4
2023-05-19T04:01:24.945Z,516.7
2023-05-19T04:02:27.143Z,516.9
2023-05-19T04:03:29.272Z,517
2023-05-19T04:04:31.405Z,517.3
2023-05-19T04:05:33.277Z,517.2
2023-05-19T04:06:35.037Z,517
2023-05-19T04:07:36.968Z,516.7
2023-05-19T04:08:38.715Z,517
2023-05-19T04:09:40.887Z,516.6
2023-05-19T04:10:42.839Z,516.2
2023-05-19T04:11:44.604Z,516.2
2023-05-19T04:12:46.625Z,515.8
2023-05-19T04:13:48.478Z,515.9
2023-05-19T04:14:50.328Z,516
2023-05-19T04:15:52.518Z,516
2023-05-19T04:16:57.198Z,515.6
2023-05-19T04:17:59.416Z,516
2023-05-19T04:19:01.443Z,516.1
2023-05-19T04:20:03.272Z,516.2
2023-05-19T04:21:05.074Z,516
2023-05-19T04:22:07.074Z,515.7
2023-05-19T04:23:09.023Z,515.6
2023-05-19T04:24:10.993Z,515.5
2023-05-19T04:25:12.818Z,515.2
2023-05-19T04:26:14.878Z,515.1
2023-05-19T04:27:16.627Z,515.4
2023-05-19T04:28:18.477Z,515.1
2023-05-19T04:29:23.206Z,515.2
2023-05-19T04:30:25.026Z,515.1
2023-05-19T04:31:27.105Z,514.9
2023-05-19T04:32:29.182Z,514.7
2023-05-19T04:33:31.021Z,514.8
2023-05-19T04:34:33.064Z,514.6
2023-05-19T04:35:34.908Z,514.4
2023-05-19T04:36:36.750Z,515
2023-05-19T04:37:38.395Z,514.6
2023-05-19T04:38:40.255Z,514.8
2023-05-19T04:39:42.107Z,514.5
2023-05-19T04:40:44.061Z,514.7
2023-05-19T04:41:46.115Z,514.5
2023-05-19T04:42:47.994Z,514.5
2023-05-19T04:43:49.910Z,514.4
2023-05-19T04:44:51.877Z,514.6
2023-05-19T04:45:53.811Z,514.6
2023-05-19T04:46:55.897Z,514.2
2023-05-19T04:47:58.039Z,514.3
2023-05-19T04:48:59.914Z,514.1
2023-05-19T04:50:01.740Z,513.9
2023-05-19T04:51:03.575Z,514.2
2023-05-19T04:52:05.427Z,514.4
2023-05-19T04:53:07.419Z,513.9
2023-05-19T04:54:09.542Z,514.2
2023-05-19T04:55:11.546Z,514.2
2023-05-19T04:56:13.458Z,513.7
2023-05-19T04:57:15.290Z,513.7
2023-05-19T04:58:17.072Z,513.6
2023-05-19T04:59:18.790Z,513.8
2023-05-19T05:00:20.648Z,514.1
2023-05-19T05:01:22.771Z,514
2023-05-19T05:02:24.994Z,513.9
2023-05-19T05:03:27.593Z,513.7
2023-05-19T05:04:29.388Z,514
2023-05-19T05:05:31.745Z,513.6
2023-05-19T05:06:33.679Z,513.9
2023-05-19T05:07:35.450Z,513.6
2023-05-19T05:08:37.215Z,513.8
2023-05-19T05:09:39.058Z,513.8
2023-05-19T05:10:40.896Z,513.4
2023-05-19T05:11:42.933Z,513.8
2023-05-19T05:12:44.780Z,513.8
2023-05-19T05:13:47.755Z,514
2023-05-19T05:14:49.930Z,514
2023-05-19T05:15:51.899Z,514.4
2023-05-19T05:16:54.374Z,514.2
2023-05-19T05:17:56.706Z,514
2023-05-19T05:18:58.926Z,514
2023-05-19T05:20:01.027Z,513.9
2023-05-19T05:21:02.869Z,513.9
2023-05-19T05:22:04.828Z,513.9
2023-05-19T05:23:06.667Z,513.4
2023-05-19T05:24:08.513Z,513.4
2023-05-19T05:25:10.574Z,513.6
2023-05-19T05:26:12.524Z,514
2023-05-19T05:27:14.363Z,513.6
2023-05-19T05:28:16.330Z,513.7
2023-05-19T05:29:18.197Z,513.8
2023-05-19T05:30:20.122Z,513.9
2023-05-19T05:31:21.861Z,513.6
2023-05-19T05:32:24.088Z,513.6
2023-05-19T05:33:26.458Z,513.9
2023-05-19T05:34:28.186Z,513.6
2023-05-19T05:35:30.842Z,513.7
2023-05-19T05:36:32.839Z,513.7
2023-05-19T05:37:35.240Z,513.4
2023-05-19T05:38:36.971Z,513.4
2023-05-19T05:39:38.648Z,513.6
2023-05-19T05:40:40.479Z,513.4
2023-05-19T05:41:42.421Z,513.2
2023-05-19T05:42:44.581Z,513.3
2023-05-19T05:43:46.430Z,513.5
2023-05-19T05:44:48.141Z,513.6
2023-05-19T05:45:49.889Z,513.8
2023-05-19T05:46:51.685Z,513.8
2023-05-19T05:47:54.064Z,513.6
2023-05-19T05:48:55.998Z,513.7
2023-05-19T05:49:57.829Z,513.3
2023-05-19T05:50:59.647Z,513.5
2023-05-19T05:52:07.439Z,513
2023-05-19T05:53:09.041Z,512.7
2023-05-19T05:54:10.673Z,512.6
2023-05-19T05:55:12.624Z,512.4
2023-05-19T05:56:14.683Z,512.8
2023-05-19T05:57:16.535Z,512.6
2023-05-19T05:58:18.382Z,512.2
2023-05-19T05:59:20.333Z,512.3
2023-05-19T06:00:22.512Z,511.9
2023-05-19T06:01:25.199Z,511.7
2023-05-19T06:02:27.349Z,511.7
2023-05-19T06:03:29.687Z,511.3
2023-05-19T06:04:31.754Z,511.6
2023-05-19T06:05:33.936Z,511.7
2023-05-19T06:06:35.717Z,511.4
2023-05-19T06:07:37.349Z,511.2
2023-05-19T06:08:38.989Z,511.3
2023-05-19T06:09:40.601Z,511.2
2023-05-19T06:10:43.214Z,511.1
2023-05-19T06:11:45.894Z,511.1
2023-05-19T06:12:47.739Z,511.3
2023-05-19T06:13:49.495Z,510.9
2023-05-19T06:14:51.224Z,511
2023-05-19T06:15:53.675Z,511.1
2023-05-19T06:16:55.455Z,510.7
2023-05-19T06:17:57.598Z,510.8
2023-05-19T06:18:59.789Z,511
2023-05-19T06:20:01.439Z,510.9
2023-05-19T06:21:03.182Z,510.7
2023-05-19T06:22:04.896Z,510.9
2023-05-19T06:23:06.564Z,511
2023-05-19T06:24:08.192Z,510.8
2023-05-19T06:25:09.848Z,510.6
2023-05-19T06:26:11.561Z,510.7
2023-05-19T06:27:13.242Z,511
2023-05-19T06:28:14.937Z,511.3
2023-05-19T06:29:16.739Z,511.3
2023-05-19T06:30:18.425Z,511.3
2023-05-19T06:31:20.254Z,511.6
2023-05-19T06:32:22.256Z,511.3
2023-05-19T06:33:29.472Z,511.2
2023-05-19T06:34:31.744Z,511.1
2023-05-19T06:35:33.973Z,511.2
2023-05-19T06:36:35.653Z,511.3
2023-05-19T06:37:37.377Z,510.9
2023-05-19T06:38:39.001Z,510.8
2023-05-19T06:39:40.576Z,510.8
2023-05-19T06:40:42.221Z,510.9
2023-05-19T06:41:43.850Z,510.8
2023-05-19T06:42:45.916Z,510.6
2023-05-19T06:43:47.540Z,510.9
2023-05-19T06:44:49.241Z,510.7
2023-05-19T06:45:50.935Z,510.8
2023-05-19T06:46:53.104Z,510.6
2023-05-19T06:47:55.411Z,510.9
2023-05-19T06:48:57.202Z,510.5
2023-05-19T06:49:58.957Z,510.8
2023-05-19T06:51:00.940Z,510.9
2023-05-19T06:52:02.882Z,510.9
2023-05-19T06:53:04.935Z,511.2
2023-05-19T06:54:06.890Z,511.1
2023-05-19T06:55:08.668Z,510.9
2023-05-19T06:56:10.374Z,511.1
2023-05-19T06:57:12.516Z,510.4
2023-05-19T06:58:14.188Z,510.4
2023-05-19T06:59:15.829Z,510.4
2023-05-19T07:00:32.357Z,510.3
2023-05-19T07:01:34.468Z,509.9
2023-05-19T07:02:36.771Z,510.2
2023-05-19T07:03:39.448Z,510.2
2023-05-19T07:04:41.361Z,510.1
2023-05-19T07:05:43.652Z,510
2023-05-19T07:06:45.378Z,510
2023-05-19T07:07:47.487Z,510.4
2023-05-19T07:08:50.626Z,510.3
2023-05-19T07:09:53.266Z,510.2
2023-05-19T07:10:55.006Z,510
2023-05-19T07:11:56.980Z,510.1
2023-05-19T07:12:58.921Z,510
2023-05-19T07:14:00.964Z,509.8
2023-05-19T07:15:04.104Z,509.7
2023-05-19T07:16:06.171Z,509.9
2023-05-19T07:17:08.172Z,510.1
2023-05-19T07:18:10.720Z,509.7
2023-05-19T07:19:13.134Z,509.9
2023-05-19T07:20:14.893Z,509.6
2023-05-19T07:21:17.310Z,509.5
2023-05-19T07:22:19.334Z,509.5
2023-05-19T07:23:21.095Z,509.9
2023-05-19T07:24:22.769Z,509.7
2023-05-19T07:25:24.440Z,509.4
2023-05-19T07:26:26.085Z,509.4
2023-05-19T07:27:27.813Z,509.4
2023-05-19T07:28:29.541Z,509.4
2023-05-19T07:29:31.206Z,509.3
2023-05-19T07:30:34.101Z,509.6
2023-05-19T07:31:36.261Z,509.4
2023-05-19T07:32:38.368Z,509.8
2023-05-19T07:33:40.202Z,509.6
2023-05-19T07:34:41.893Z,509.5
2023-05-19T07:35:43.633Z,509.3
2023-05-19T07:36:45.384Z,509.3
2023-05-19T07:37:47.231Z,509.2
2023-05-19T07:38:49.302Z,509.1
2023-05-19T07:39:51.242Z,509
2023-05-19T07:40:53.028Z,509.4
2023-05-19T07:41:54.831Z,509.4
2023-05-19T07:42:56.550Z,509.5
2023-05-19T07:43:58.479Z,509.8
2023-05-19T07:45:00.685Z,509.4
2023-05-19T07:46:02.800Z,509.6
2023-05-19T07:47:04.699Z,509.7
2023-05-19T07:48:06.763Z,509.4
2023-05-19T07:49:08.730Z,509.5
2023-05-19T07:50:10.556Z,509.7
2023-05-19T07:51:12.412Z,510.3
2023-05-19T07:52:14.138Z,510.1
2023-05-19T07:53:15.877Z,510.1
2023-05-19T07:54:17.792Z,509.8
2023-05-19T07:55:19.669Z,509.5
2023-05-19T07:56:21.342Z,509.7
2023-05-19T07:57:23.498Z,509.9
2023-05-19T07:58:25.367Z,509.8
2023-05-19T07:59:27.116Z,509.5
2023-05-19T08:00:28.819Z,509.6
2023-05-19T08:01:30.511Z,509.8
2023-05-19T08:02:32.859Z,510.3
2023-05-19T08:03:35.902Z,510
2023-05-19T08:04:38.172Z,510.2
2023-05-19T08:05:40.291Z,510.5
2023-05-19T08:06:42.108Z,510.1
2023-05-19T08:07:43.816Z,509.9
2023-05-19T08:08:45.468Z,509.9
2023-05-19T08:09:47.180Z,509.9
2023-05-19T08:10:48.824Z,509.7
2023-05-19T08:11:50.570Z,509.7
2023-05-19T08:12:52.246Z,510
2023-05-19T08:13:53.898Z,510.2
2023-05-19T08:14:55.638Z,509.8
2023-05-19T08:15:57.683Z,510.1
2023-05-19T08:16:59.307Z,510.3
2023-05-19T08:18:01.228Z,509.8
2023-05-19T08:19:03.721Z,509.8
2023-05-19T08:20:05.503Z,509.9
2023-05-19T08:21:07.236Z,510
2023-05-19T08:22:08.906Z,509.9
2023-05-19T08:23:10.576Z,509.8
2023-05-19T08:24:12.252Z,509.8
2023-05-19T08:25:14.014Z,509.6
2023-05-19T08:26:15.698Z,509.7
2023-05-19T08:27:17.346Z,510.1
2023-05-19T08:28:19.094Z,509.9
2023-05-19T08:29:20.820Z,510.1
2023-05-19T08:30:22.571Z,510.1
2023-05-19T08:31:25.082Z,510.6
2023-05-19T08:32:26.973Z,510.3
2023-05-19T08:33:28.921Z,510.4
2023-05-19T08:34:30.579Z,510.5
2023-05-19T08:35:32.209Z,510.2
2023-05-19T08:36:33.939Z,509.9
2023-05-19T08:37:35.605Z,510.3
2023-05-19T08:38:37.261Z,510.1
2023-05-19T08:39:38.923Z,510
2023-05-19T08:40:40.581Z,509.7
2023-05-19T08:41:42.318Z,509.9
2023-05-19T08:42:43.979Z,509.8
2023-05-19T08:43:45.686Z,509.8
2023-05-19T08:44:47.286Z,509.9
2023-05-19T08:45:49.098Z,509.7
2023-05-19T08:46:50.933Z,510
2023-05-19T08:47:52.857Z,510.2
2023-05-19T08:48:55.185Z,510.3
2023-05-19T08:49:57.024Z,510.3
2023-05-19T08:50:58.689Z,510.3
2023-05-19T08:52:00.301Z,510.3
2023-05-19T08:53:02.028Z,510.4
2023-05-19T08:54:03.807Z,510.7
2023-05-19T08:55:05.432Z,510.4
2023-05-19T08:56:07.220Z,510.7
2023-05-19T08:57:09.070Z,510.1
2023-05-19T08:58:10.726Z,510.5
2023-05-19T08:59:12.389Z,510.6
2023-05-19T09:00:14.007Z,511
2023-05-19T09:01:15.862Z,511
2023-05-19T09:02:17.497Z,510.9
2023-05-19T09:03:24.922Z,511
2023-05-19T09:04:30.842Z,511
2023-05-19T09:05:34.462Z,511.1
2023-05-19T09:06:36.302Z,510.8
2023-05-19T09:07:37.974Z,511.4
2023-05-19T09:08:39.603Z,511.5
2023-05-19T09:09:41.303Z,511.6
2023-05-19T09:10:42.997Z,511.5
2023-05-19T09:11:44.622Z,511.4
2023-05-19T09:12:46.263Z,511.4
2023-05-19T09:13:47.987Z,511.5
2023-05-19T09:14:52.404Z,511.6
2023-05-19T09:15:54.265Z,511.5
2023-05-19T09:16:56.558Z,511.7
2023-05-19T09:17:59.067Z,511.9
2023-05-19T09:19:01.618Z,511.6
2023-05-19T09:20:04.546Z,511.9
2023-05-19T09:21:06.591Z,512.2
2023-05-19T09:22:08.284Z,512.2
2023-05-19T09:23:10.279Z,512.3
2023-05-19T09:24:12.263Z,512.1
2023-05-19T09:25:14.074Z,512.3
2023-05-19T09:26:15.778Z,512.3
2023-05-19T09:27:17.563Z,512.5
2023-05-19T09:28:19.263Z,512.4
2023-05-19T09:29:21.276Z,512.4
2023-05-19T09:30:23.132Z,512.4
2023-05-19T09:31:25.288Z,512.7
2023-05-19T09:32:28.315Z,512.9
2023-05-19T09:33:30.241Z,512.8
2023-05-19T09:34:32.144Z,512.9
2023-05-19T09:35:35.208Z,512.9
2023-05-19T09:36:37.280Z,513.4
2023-05-19T09:37:39.337Z,512.7
2023-05-19T09:38:41.347Z,513.5
2023-05-19T09:39:43.496Z,513.2
2023-05-19T09:40:45.306Z,513.3
2023-05-19T09:41:47.163Z,513.3
2023-05-19T09:42:48.959Z,513.3
2023-05-19T09:43:50.614Z,513.3
2023-05-19T09:44:52.226Z,513.1
2023-05-19T09:45:53.933Z,513.4
2023-05-19T09:46:56.084Z,513.7
2023-05-19T09:47:58.067Z,513.7
2023-05-19T09:49:00.108Z,513.9
2023-05-19T09:50:01.946Z,513.8
2023-05-19T09:51:03.908Z,513.7
2023-05-19T09:52:05.899Z,513.5
2023-05-19T09:53:07.855Z,514
2023-05-19T09:54:09.729Z,513.8
2023-05-19T09:55:11.539Z,514.1
2023-05-19T09:56:13.221Z,514.1
2023-05-19T09:57:14.932Z,513.8
2023-05-19T09:58:16.613Z,513.8
2023-05-19T09:59:18.323Z,514.1
2023-05-19T10:00:20.373Z,514.3
2023-05-19T10:01:22.811Z,514
2023-05-19T10:02:24.721Z,514.2
2023-05-19T10:03:26.344Z,513.7
2023-05-19T10:04:28.416Z,514
2023-05-19T10:05:30.203Z,513.8
2023-05-19T10:06:32.092Z,514
2023-05-19T10:07:34.221Z,513.9
2023-05-19T10:08:36.140Z,514.2
2023-05-19T10:09:37.850Z,514.5
2023-05-19T10:10:39.846Z,514.3
2023-05-19T10:11:41.526Z,514.4
2023-05-19T10:12:43.209Z,514.3
2023-05-19T10:13:45.060Z,514.5
2023-05-19T10:14:46.871Z,514.4
2023-05-19T10:16:01.673Z,514.4
2023-05-19T10:17:04.691Z,514.3
2023-05-19T10:18:06.785Z,514.3
2023-05-19T10:19:08.748Z,514.5
2023-05-19T10:20:11.057Z,514.4
2023-05-19T10:21:12.730Z,514.8
2023-05-19T10:22:14.528Z,514.5
2023-05-19T10:23:16.233Z,515.3
2023-05-19T10:24:17.898Z,515.2
2023-05-19T10:25:19.662Z,515.7
2023-05-19T10:26:21.394Z,515.6
2023-05-19T10:27:23.157Z,515.7
2023-05-19T10:28:24.894Z,515.8
2023-05-19T10:29:26.570Z,515.4
2023-05-19T10:30:28.402Z,515.6
2023-05-19T10:31:30.336Z,515.9
2023-05-19T10:32:33.353Z,515.8
2023-05-19T10:33:35.128Z,516.1
2023-05-19T10:34:36.756Z,516
2023-05-19T10:35:39.286Z,516.4
2023-05-19T10:36:41.472Z,516.4
2023-05-19T10:37:43.345Z,516.3
2023-05-19T10:38:45.707Z,516.4
2023-05-19T10:39:47.415Z,516.3
2023-05-19T10:40:49.051Z,516.5
2023-05-19T10:41:50.699Z,516.4
2023-05-19T10:42:52.369Z,516.3
2023-05-19T10:43:54.187Z,516.2
2023-05-19T10:44:55.898Z,516.2
2023-05-19T10:45:57.861Z,516.5
2023-05-19T10:46:59.798Z,516.1
2023-05-19T10:48:01.950Z,516
2023-05-19T10:49:03.658Z,516.1
2023-05-19T10:50:05.508Z,516.3
2023-05-19T10:51:07.248Z,516.5
2023-05-19T10:52:09.109Z,516.7
2023-05-19T10:53:10.989Z,517
2023-05-19T10:54:14.959Z,516.8
2023-05-19T10:55:16.834Z,517.2
2023-05-19T10:56:18.679Z,517.2
2023-05-19T10:57:20.708Z,516.9
2023-05-19T10:58:22.481Z,517
2023-05-19T10:59:24.149Z,517.2
2023-05-19T11:00:25.880Z,517
2023-05-19T11:01:27.778Z,517.1
2023-05-19T11:02:29.595Z,517.2
2023-05-19T11:03:31.687Z,517.5
2023-05-19T11:04:33.521Z,517.3
2023-05-19T11:05:36.258Z,517.9
2023-05-19T11:06:38.166Z,517.8
2023-05-19T11:07:40.426Z,517.6
2023-05-19T11:08:42.216Z,517.8
2023-05-19T11:09:44.353Z,517.4
2023-05-19T11:10:46.240Z,517.5
2023-05-19T11:11:48.163Z,517.3
2023-05-19T11:12:49.782Z,517.6
2023-05-19T11:13:51.552Z,517.7
2023-05-19T11:14:53.331Z,517.7
2023-05-19T11:15:55.068Z,517.6
2023-05-19T11:16:57.322Z,517.8
2023-05-19T11:17:59.251Z,518
2023-05-19T11:19:01.259Z,518
2023-05-19T11:20:02.998Z,518.3
2023-05-19T11:21:04.984Z,518.4
2023-05-19T11:22:06.885Z,518.7
2023-05-19T11:23:09.429Z,518.7
2023-05-19T11:24:11.300Z,518.1
2023-05-19T11:25:13.061Z,518.3
2023-05-19T11:26:14.786Z,518.3
2023-05-19T11:27:16.513Z,518.2
2023-05-19T11:28:18.777Z,518.1
2023-05-19T11:29:21.006Z,518
2023-05-19T11:30:22.789Z,518.2
2023-05-19T11:31:24.769Z,518
2023-05-19T11:32:26.972Z,517.8
2023-05-19T11:33:28.810Z,517.7
2023-05-19T11:34:30.465Z,517.4
2023-05-19T11:35:37.424Z,517
2023-05-19T11:36:39.421Z,516.5
2023-05-19T11:37:41.528Z,515.6
2023-05-19T11:38:43.340Z,515.3
2023-05-19T11:39:45.055Z,515.4
2023-05-19T11:40:46.749Z,514.4
2023-05-19T11:41:48.444Z,514.2
2023-05-19T11:42:50.197Z,514.5
2023-05-19T11:43:51.988Z,514.5
2023-05-19T11:44:53.669Z,514.2
2023-05-19T11:45:56.337Z,514.3
2023-05-19T11:46:58.181Z,514
2023-05-19T11:48:04.006Z,513.5
2023-05-19T11:49:05.770Z,513.6
2023-05-19T11:50:07.689Z,513.8
2023-05-19T11:51:09.460Z,513.7
2023-05-19T11:52:11.150Z,513.6
2023-05-19T11:53:13.238Z,513.6
2023-05-19T11:54:14.943Z,513.1
2023-05-19T11:55:16.673Z,512.6
2023-05-19T11:56:18.442Z,512.4
2023-05-19T11:57:20.138Z,512
2023-05-19T11:58:21.844Z,510.6
2023-05-19T11:59:23.989Z,510.1
2023-05-19T12:00:25.629Z,509.4
2023-05-19T12:01:27.303Z,509.4
2023-05-19T12:02:29.294Z,509.1
2023-05-19T12:03:31.811Z,509
2023-05-19T12:04:33.950Z,508.8
2023-05-19T12:05:45.106Z,509.6
2023-05-19T12:06:47.745Z,509.4
2023-05-19T12:07:49.414Z,509.6
2023-05-19T12:08:51.335Z,509.9
2023-05-19T12:09:53.184Z,509.8
2023-05-19T12:10:55.118Z,509.9
2023-05-19T12:11:56.965Z,509.9
2023-05-19T12:12:58.860Z,509.8
2023-05-19T12:14:00.790Z,510
2023-05-19T12:15:02.858Z,510.2
2023-05-19T12:16:05.064Z,510.7
2023-05-19T12:17:06.956Z,511.3
2023-05-19T12:18:09.328Z,510.8
2023-05-19T12:19:11.384Z,511
2023-05-19T12:20:13.445Z,511.2
2023-05-19T12:21:15.279Z,511.1
2023-05-19T12:22:17.139Z,511.3
2023-05-19T12:23:19.505Z,511.5
2023-05-19T12:24:21.138Z,511.7
2023-05-19T12:25:23.003Z,511.9
2023-05-19T12:26:24.824Z,512.1
2023-05-19T12:27:26.889Z,512.1
2023-05-19T12:28:28.873Z,511.8
2023-05-19T12:29:30.969Z,512
2023-05-19T12:30:36.068Z,512
2023-05-19T12:31:38.398Z,512.3
2023-05-19T12:32:40.361Z,512.5
2023-05-19T12:33:42.239Z,512.1
2023-05-19T12:34:44.031Z,512.3
2023-05-19T12:35:45.997Z,512
2023-05-19T12:36:47.645Z,512.2
2023-05-19T12:37:49.405Z,512.2
2023-05-19T12:38:51.121Z,512.5
2023-05-19T12:39:54.274Z,512.6
2023-05-19T12:40:56.125Z,512.8
2023-05-19T12:41:58.120Z,512.7
2023-05-19T12:43:00.197Z,512.7
2023-05-19T12:44:02.057Z,513
2023-05-19T12:45:04.377Z,513.5
2023-05-19T12:46:06.665Z,513.6
2023-05-19T12:47:08.636Z,513.8
2023-05-19T12:48:10.662Z,513.9
2023-05-19T12:49:12.698Z,513.7
2023-05-19T12:50:14.655Z,513.6
2023-05-19T12:51:16.462Z,514
2023-05-19T12:52:18.322Z,514.1
2023-05-19T12:53:20.818Z,514.5
2023-05-19T12:54:24.237Z,514.3
2023-05-19T12:55:26.174Z,514.5
2023-05-19T12:56:28.111Z,514.7
2023-05-19T12:57:30.208Z,515
2023-05-19T12:58:32.223Z,515.3
2023-05-19T12:59:39.727Z,514.9
2023-05-19T13:00:41.945Z,514.8
2023-05-19T13:01:44.525Z,515.2
2023-05-19T13:02:46.750Z,515.1
2023-05-19T13:03:49.412Z,515.2
2023-05-19T13:04:51.260Z,515.6
2023-05-19T13:05:52.971Z,515.9
2023-05-19T13:06:54.652Z,515.9
2023-05-19T13:07:56.454Z,516.3
2023-05-19T13:08:58.163Z,516.3
2023-05-19T13:09:59.822Z,516.3
2023-05-19T13:11:01.587Z,516.5
2023-05-19T13:12:03.216Z,516.4
2023-05-19T13:13:04.972Z,515.8
2023-05-19T13:14:06.654Z,515.6
2023-05-19T13:15:08.250Z,515.8
2023-05-19T13:16:10.173Z,515.7
2023-05-19T13:17:12.007Z,515.8
2023-05-19T13:18:14.350Z,515.9
2023-05-19T13:19:26.613Z,516
2023-05-19T13:20:29.245Z,516.3
2023-05-19T13:21:30.851Z,516.2
2023-05-19T13:22:32.503Z,516.5
2023-05-19T13:23:34.220Z,516.7
2023-05-19T13:24:35.912Z,516.6
2023-05-19T13:25:37.533Z,517